Home PIREPS Pireps

Flight WIN1073

  • Submitted By: Carl Hermans
  • Departure Airport: Basel-Mulhouse (LFSB)
  • Arrival Airport: Oostende (EBOS)
  • Aircraft: YOUR CHOICE (YC)
  • Flight Time: 01.10
  • Date Submitted: 04/10/2017
  • Status: Accepted
Flight Details
Gross Revenue:
(25 load / € 0.00 per unit
€ 0.00
Fuel Cost:
(1961 fuel used @ 5.1 / unit)
€ 10,001.10

Additional Log Information:

View Log

Aircraft Used in flight is x737-800_v503 Brussels Airlines
15:24 Brakes are On
15:24 Brakes are Released
15:26 Brakes are On
15:26 Brakes are Released
15:30 Brakes are On
15:30 Brakes are Released
15:31 Brakes are On
15:32 Brakes are Released
15:32 You Took off @ 166 Knots and Flaps at Position 3
Departure Weather
LFSB 041300Z 28007KT 240V310 CAVOK 16/07 Q1025 NOSIGrn
15:32 Landing Gear Up @ 176 Knots and 900 Feet
15:34 Below 10000 feet you are not allowed to go over 250 knots
15:35 Above FL100 you need to switch of the landing lights
15:57 You exceeded maximum bank angle
16:27 Landing Gear Down @ 166 Knots and 2640 Feet
16:30 You Landed @ 158 Knots and with -650 Vertical Speed
Arrival Weather
EBOS 041350Z 25018KT 9999 -RA FEW026 SCT034 14/08 Q1022 TEMPO 26018G28KTrn
16:30 Your Landing was very hard
16:30 Brakes are On
16:31 Brakes are Released
16:34 Brakes are On
16:34 Brakes are Released
16:34 Brakes are On
16:34 Brussels Bel-Track1.0.1.2

Route Map

Corporate About Us Our Team Vacancies Information Fleet Route Network Rules and Regulations Operations Flight Schedules Event Center Tours Partners IVAO Vatsim Acars dev FSCB

fb Users Online Belgium Marc Claus, Belgium ISMAIL SAIF , Belgium Martin Witters, Belgium Roger Wijns,
5 Pilot(s) and 204 Guest(s) Online
CMS by phpVMS - Design by Crazycreatives.com - Copyright © 2018 - Brussels Airlines Virtual